Skip Navigation Links
NOAA logo - Click to go to the NOAA homepage
NOAA's National Weather Service
Alaska Aviation Weather Unit
  NWS logo - Click to go to the NWS homepage
Left Navbar Graphic     23 AKDT = 07 GMT

   
NOAA is celebrating 200 years of science, service, and stewardship. Visit the NOAA 200th celebration Web site to learn more.
USA.gov is the U.S. Government's official Web portal to all Federal, state and local government Web resources and services.
Facebook
NWS on Facebook

AAWU Home :: Display TAF Add Bookmark
METAR PASK 240156Z AUTO 06006KT 10SM CLR 02/M05 A2979 RMK AO2 SLP085
     T00221050 FZRANO $=

METAR PASK 240256Z AUTO 05007KT 10SM CLR 02/M05 A2978 RMK AO2 SLP081
     T00221050 56015 FZRANO $=

METAR PASK 240356Z AUTO 05007KT 10SM CLR 02/M05 A2977 RMK AO2 SLP077
     T00171050 FZRANO $=

METAR PASK 240456Z AUTO 05005KT 10SM CLR 01/M04 A2976 RMK AO2 SLP074
     T00061044 FZRANO $=

METAR PASK 240556Z AUTO 06007KT 10SM CLR M01/M06 A2975 RMK AO2
 SLP072 T10111061 10028 21011 56009 FZRANO $=

METAR PASK 240656Z AUTO 05007KT 10SM CLR M03/M07 A2975 RMK AO2
 SLP071 T10331072 FZRANO $=


NOAA's National Weather Service
Alaska Aviation Weather Unit
6930 Sand Lake Road
Anchorage, AK 99502-1845
Disclaimer
Credits
Glossary
Privacy Policy
About Us
Career Opportunities
Contact AAWU Internet Services Site last modified: April, 17th 2012